createdAt,value
2022-09-06T00:00:47.891Z,1.20
2022-09-06T00:03:18.481Z,1.20
2022-09-06T00:05:48.344Z,1.30
2022-09-06T00:08:18.391Z,1.50
2022-09-06T00:10:48.177Z,1.37
2022-09-06T00:13:17.950Z,1.37
2022-09-06T00:15:47.805Z,1.50
2022-09-06T00:18:17.258Z,1.60
2022-09-06T00:20:46.760Z,1.40
2022-09-06T00:23:16.809Z,1.70
2022-09-06T00:25:46.569Z,1.50
2022-09-06T00:28:17.548Z,1.27
2022-09-06T00:30:47.604Z,1.50
2022-09-06T00:33:17.048Z,1.60
2022-09-06T00:35:47.376Z,1.90
2022-09-06T00:38:17.033Z,1.57
2022-09-06T00:40:46.801Z,1.70
2022-09-06T00:43:16.700Z,1.80
2022-09-06T00:45:46.895Z,1.82
2022-09-06T00:48:17.909Z,2.12
2022-09-06T00:50:50.213Z,1.70
2022-09-06T00:53:20.843Z,1.93
2022-09-06T00:55:50.967Z,2.40
2022-09-06T00:58:21.291Z,2.10
2022-09-06T01:00:50.774Z,2.50
2022-09-06T01:03:21.777Z,2.20
2022-09-06T01:06:03.307Z,3.20
2022-09-06T01:08:41.982Z,3.60
2022-09-06T01:11:29.746Z,3.93
2022-09-06T01:14:08.531Z,4.50
2022-09-06T01:16:53.081Z,3.87
2022-09-06T01:19:31.653Z,4.50
2022-09-06T01:22:13.119Z,4.47
2022-09-06T01:25:06.705Z,4.83
2022-09-06T01:28:01.778Z,4.15
2022-09-06T01:30:34.081Z,4.50
2022-09-06T01:33:09.788Z,4.07
2022-09-06T01:35:42.959Z,3.60
2022-09-06T01:38:12.602Z,3.57
2022-09-06T01:40:42.374Z,3.90
2022-09-06T01:43:14.483Z,3.73
2022-09-06T01:45:52.440Z,3.65
2022-09-06T01:48:36.734Z,3.93
2022-09-06T01:51:21.245Z,4.00
2022-09-06T01:54:10.558Z,3.60
2022-09-06T01:56:55.029Z,3.63
2022-09-06T01:59:30.620Z,3.80
2022-09-06T02:02:21.884Z,4.28
2022-09-06T02:05:09.715Z,4.23
2022-09-06T02:07:41.035Z,4.50
2022-09-06T02:10:30.194Z,4.28
2022-09-06T02:13:02.080Z,4.50
2022-09-06T02:15:37.671Z,5.33
2022-09-06T02:18:15.403Z,5.58
2022-09-06T02:20:48.281Z,5.30
2022-09-06T02:23:19.885Z,5.13
2022-09-06T02:25:52.731Z,5.80
2022-09-06T02:28:23.062Z,5.72
2022-09-06T02:30:55.991Z,5.40
2022-09-06T02:33:28.459Z,5.80
2022-09-06T02:36:00.000Z,5.57
2022-09-06T02:38:30.070Z,5.50
2022-09-06T02:40:59.616Z,5.30
2022-09-06T02:43:29.686Z,4.75
2022-09-06T02:45:59.508Z,5.17
2022-09-06T02:48:29.095Z,5.10
2022-09-06T02:51:00.731Z,4.60
2022-09-06T02:53:30.219Z,5.30
2022-09-06T02:56:00.320Z,5.63
2022-09-06T02:58:30.171Z,5.73
2022-09-06T03:00:59.985Z,5.37
2022-09-06T03:03:29.790Z,5.63
2022-09-06T03:05:59.626Z,4.93
2022-09-06T03:08:32.267Z,5.37
2022-09-06T03:11:02.480Z,5.60
2022-09-06T03:13:32.547Z,4.55
2022-09-06T03:16:02.657Z,5.60
2022-09-06T03:18:32.954Z,5.00
2022-09-06T03:21:03.721Z,5.28
2022-09-06T03:23:34.258Z,6.40
2022-09-06T03:26:07.953Z,6.42
2022-09-06T03:28:37.904Z,5.87
2022-09-06T03:31:07.863Z,6.63
2022-09-06T03:33:38.062Z,6.40
2022-09-06T03:36:09.178Z,6.40
2022-09-06T03:38:38.975Z,7.57
2022-09-06T03:41:08.810Z,7.50
2022-09-06T03:43:38.594Z,8.07
2022-09-06T03:46:09.682Z,7.73
2022-09-06T03:48:39.582Z,8.10
2022-09-06T03:51:09.362Z,8.07
2022-09-06T03:53:39.160Z,8.30
2022-09-06T03:56:11.076Z,9.98
2022-09-06T03:58:40.849Z,8.37
2022-09-06T04:04:11.533Z,7.88
2022-09-06T04:06:41.615Z,8.53
2022-09-06T04:09:11.152Z,7.10
2022-09-06T04:11:43.811Z,7.70
2022-09-06T04:14:12.259Z,7.17
2022-09-06T04:16:42.093Z,6.30
2022-09-06T04:19:11.914Z,6.83
2022-09-06T04:21:41.555Z,7.30
2022-09-06T04:24:11.730Z,6.84
2022-09-06T04:26:41.964Z,6.67
2022-09-06T04:29:11.770Z,7.93
2022-09-06T04:31:41.577Z,6.53
2022-09-06T04:34:11.738Z,7.83
2022-09-06T04:36:43.601Z,7.35
2022-09-06T04:39:12.687Z,7.03
2022-09-06T04:41:42.728Z,8.40
2022-09-06T04:44:12.278Z,7.63
2022-09-06T04:46:43.509Z,7.50
2022-09-06T04:49:13.593Z,9.05
2022-09-06T04:51:43.381Z,9.30
2022-09-06T04:54:13.044Z,8.83
2022-09-06T04:56:42.830Z,8.33
2022-09-06T04:59:12.633Z,9.33
2022-09-06T05:01:42.433Z,10.00
2022-09-06T05:04:12.258Z,9.63
2022-09-06T05:06:42.908Z,9.47
2022-09-06T05:09:12.693Z,9.57
2022-09-06T05:11:42.467Z,10.27
2022-09-06T05:14:12.286Z,9.83
2022-09-06T05:16:42.170Z,9.53
2022-09-06T05:19:12.018Z,9.50
2022-09-06T05:21:42.104Z,8.60
2022-09-06T05:24:12.208Z,9.70
2022-09-06T05:26:41.993Z,9.40
2022-09-06T05:29:11.779Z,9.50
2022-09-06T05:31:41.637Z,10.07
2022-09-06T05:34:13.321Z,9.83
2022-09-06T05:36:43.278Z,8.97
2022-09-06T05:39:13.064Z,9.20
2022-09-06T05:41:43.141Z,9.70
2022-09-06T05:44:13.292Z,9.53
2022-09-06T05:46:45.164Z,9.37
2022-09-06T05:49:15.102Z,9.57
2022-09-06T05:51:44.953Z,9.80
2022-09-06T05:54:14.725Z,10.43
2022-09-06T05:56:44.517Z,11.00
2022-09-06T05:59:14.600Z,11.08
2022-09-06T06:01:52.020Z,11.77
2022-09-06T06:04:22.565Z,10.95
2022-09-06T06:06:52.428Z,11.47
2022-09-06T06:09:22.576Z,10.32
2022-09-06T06:11:52.366Z,9.57
2022-09-06T06:14:22.071Z,9.37
2022-09-06T06:16:52.036Z,9.67
2022-09-06T06:19:21.881Z,9.53
2022-09-06T06:21:51.656Z,10.87
2022-09-06T06:24:21.149Z,9.97
2022-09-06T06:26:50.986Z,11.27
2022-09-06T06:29:20.778Z,11.20
2022-09-06T06:31:50.589Z,12.07
2022-09-06T06:34:21.793Z,11.23
2022-09-06T06:36:51.298Z,10.00
2022-09-06T06:39:21.058Z,9.70
2022-09-06T06:41:50.824Z,9.37
2022-09-06T06:44:30.946Z,11.13
2022-09-06T06:47:02.528Z,10.73
2022-09-06T06:49:32.473Z,10.43
2022-09-06T06:52:02.260Z,10.57
2022-09-06T06:54:32.048Z,10.97
2022-09-06T06:57:01.886Z,10.80
2022-09-06T06:59:32.112Z,10.47
2022-09-06T07:02:02.047Z,10.97
2022-09-06T07:04:31.893Z,10.50
2022-09-06T07:12:06.491Z,10.50
2022-09-06T07:14:36.945Z,10.78
2022-09-06T07:17:09.268Z,9.20
2022-09-06T07:22:13.635Z,9.80
2022-09-06T07:24:43.209Z,8.80
2022-09-06T07:29:44.780Z,10.38
2022-09-06T07:32:14.558Z,10.40
2022-09-06T07:34:44.785Z,9.88
2022-09-06T07:37:14.589Z,9.20
2022-09-06T07:39:45.161Z,10.35
2022-09-06T07:42:16.136Z,10.80
2022-09-06T07:44:45.914Z,10.27
2022-09-06T07:54:51.716Z,9.90
2022-09-06T07:57:21.770Z,9.98
2022-09-06T07:59:52.031Z,9.83
2022-09-06T08:02:21.568Z,10.93
2022-09-06T08:04:51.848Z,8.88
2022-09-06T08:09:53.163Z,8.73
2022-09-06T08:12:23.845Z,8.10
2022-09-06T08:14:53.714Z,8.43
2022-09-06T08:17:23.799Z,8.75
2022-09-06T08:19:53.304Z,8.35
2022-09-06T08:22:22.780Z,8.60
2022-09-06T08:24:52.576Z,8.03
2022-09-06T08:27:22.346Z,7.97
2022-09-06T08:29:52.125Z,7.27
2022-09-06T08:32:22.131Z,6.55
2022-09-06T08:34:52.009Z,7.03
2022-09-06T08:37:24.966Z,6.73
2022-09-06T08:39:53.333Z,6.10
2022-09-06T08:42:23.159Z,6.50
2022-09-06T08:44:56.285Z,6.37
2022-09-06T08:47:27.155Z,5.90
2022-09-06T08:50:05.463Z,6.17
2022-09-06T08:53:15.635Z,5.53
2022-09-06T08:55:28.782Z,5.93
2022-09-06T08:58:17.822Z,5.85
2022-09-06T09:00:58.076Z,4.25
2022-09-06T09:03:38.925Z,4.13
2022-09-06T09:06:11.922Z,4.50
2022-09-06T09:08:59.574Z,4.10
2022-09-06T09:11:32.823Z,4.40
2022-09-06T09:14:24.163Z,4.05
2022-09-06T09:16:57.164Z,3.90
2022-09-06T09:19:26.950Z,3.97
2022-09-06T09:21:57.001Z,3.60
2022-09-06T09:24:26.775Z,3.77
2022-09-06T09:27:08.640Z,2.90
2022-09-06T09:32:40.978Z,3.55
2022-09-06T09:35:24.571Z,3.40
2022-09-06T09:38:11.036Z,3.33
2022-09-06T09:40:55.946Z,3.43
2022-09-06T09:43:28.328Z,2.77
2022-09-06T09:46:19.233Z,2.27
2022-09-06T09:49:08.112Z,2.27
2022-09-06T09:51:42.883Z,1.60
2022-09-06T09:54:15.104Z,1.15
2022-09-06T09:56:55.423Z,1.33
2022-09-06T09:59:33.765Z,1.70
2022-09-06T10:02:05.215Z,1.57
2022-09-06T10:04:45.442Z,1.83
2022-09-06T10:07:23.559Z,1.40
2022-09-06T10:10:06.204Z,1.53
2022-09-06T10:12:41.289Z,2.13
2022-09-06T10:15:13.801Z,2.07
2022-09-06T10:17:52.450Z,1.50
2022-09-06T10:20:24.673Z,1.90
2022-09-06T10:23:06.613Z,1.98
2022-09-06T10:25:49.141Z,1.80
2022-09-06T10:28:30.066Z,1.77
2022-09-06T10:31:03.076Z,1.50
2022-09-06T10:33:56.845Z,1.80
2022-09-06T10:36:32.647Z,1.90
2022-09-06T10:39:06.144Z,2.05
2022-09-06T10:41:54.376Z,1.50
2022-09-06T10:44:42.167Z,1.42
2022-09-06T10:47:19.034Z,1.40
2022-09-06T10:49:54.549Z,1.47
2022-09-06T10:52:29.909Z,1.87
2022-09-06T10:55:05.532Z,2.13
2022-09-06T11:00:17.049Z,1.90
2022-09-06T11:05:40.601Z,2.40
2022-09-06T11:10:48.062Z,2.27
2022-09-06T11:13:20.074Z,1.73
2022-09-06T11:16:04.792Z,1.53
2022-09-06T11:18:43.546Z,1.35
2022-09-06T11:21:27.734Z,1.30
2022-09-06T11:24:18.327Z,1.70
2022-09-06T11:27:08.669Z,1.60
2022-09-06T11:29:43.790Z,1.80
2022-09-06T11:32:48.364Z,2.20
2022-09-06T11:35:27.167Z,1.90
2022-09-06T11:37:59.971Z,1.87
2022-09-06T11:40:38.905Z,1.50
2022-09-06T11:43:20.655Z,2.20
2022-09-06T11:45:53.362Z,1.70
2022-09-06T11:48:30.482Z,1.80
2022-09-06T11:51:03.287Z,1.70
2022-09-06T11:53:50.680Z,1.83
2022-09-06T11:56:28.823Z,1.63
2022-09-06T11:59:04.567Z,1.67
2022-09-06T12:01:36.688Z,1.90
2022-09-06T12:04:10.512Z,2.10
2022-09-06T12:06:45.936Z,2.10
2022-09-06T12:09:38.967Z,1.90
2022-09-06T12:12:16.830Z,2.15
2022-09-06T12:14:49.045Z,2.47
2022-09-06T12:17:22.579Z,2.83
2022-09-06T12:19:55.361Z,2.53
2022-09-06T12:22:35.773Z,2.00
2022-09-06T12:25:40.453Z,2.35
2022-09-06T12:28:14.450Z,2.47
2022-09-06T12:30:48.677Z,2.95
2022-09-06T12:33:32.947Z,2.65
2022-09-06T12:36:17.024Z,2.60
2022-09-06T12:38:58.305Z,3.00
2022-09-06T12:41:31.509Z,3.30
2022-09-06T12:44:02.823Z,2.83
2022-09-06T12:46:33.439Z,2.53
2022-09-06T12:49:05.447Z,2.90
2022-09-06T12:51:36.840Z,2.80
2022-09-06T12:54:20.116Z,2.73
2022-09-06T12:56:51.019Z,4.10
2022-09-06T12:59:24.865Z,3.70
2022-09-06T13:01:57.808Z,3.33
2022-09-06T13:04:42.510Z,3.02
2022-09-06T13:07:17.494Z,3.70
2022-09-06T13:09:49.869Z,3.30
2022-09-06T13:12:29.519Z,3.35
2022-09-06T13:15:05.026Z,3.33
2022-09-06T13:17:35.522Z,2.97
2022-09-06T13:20:17.839Z,3.33
2022-09-06T13:22:50.784Z,2.67
2022-09-06T13:25:26.024Z,2.40
2022-09-06T13:27:58.825Z,2.10
2022-09-06T13:30:34.257Z,2.50
2022-09-06T13:33:06.903Z,2.50
2022-09-06T13:35:39.045Z,2.40
2022-09-06T13:38:33.110Z,2.40
2022-09-06T13:41:13.754Z,2.03
2022-09-06T13:43:47.646Z,2.30
2022-09-06T13:46:17.430Z,1.90
2022-09-06T13:48:47.259Z,1.50
2022-09-06T13:51:18.237Z,1.60
2022-09-06T13:53:48.909Z,1.72
2022-09-06T13:56:18.530Z,1.60
2022-09-06T13:58:48.309Z,1.57
2022-09-06T14:01:19.038Z,1.20
2022-09-06T14:03:50.416Z,1.30
2022-09-06T14:06:19.885Z,1.67
2022-09-06T14:09:06.481Z,2.20
2022-09-06T14:11:21.263Z,2.30
2022-09-06T14:13:51.091Z,1.80
2022-09-06T14:16:20.985Z,1.80
2022-09-06T14:18:52.015Z,1.80
2022-09-06T14:21:21.922Z,1.80
2022-09-06T14:23:52.542Z,1.60
2022-09-06T14:26:23.625Z,2.60
2022-09-06T14:28:53.404Z,1.90
2022-09-06T14:31:26.068Z,1.50
2022-09-06T14:33:57.332Z,1.60
2022-09-06T14:36:30.653Z,1.90
2022-09-06T14:39:01.932Z,2.00
2022-09-06T14:41:31.763Z,2.10
2022-09-06T14:44:01.535Z,1.53
2022-09-06T14:46:31.823Z,1.90
2022-09-06T14:49:13.573Z,1.80
2022-09-06T14:51:43.310Z,2.83
2022-09-06T14:54:14.507Z,1.77
2022-09-06T14:56:44.888Z,2.40
2022-09-06T14:59:14.938Z,2.20
2022-09-06T15:01:44.798Z,1.83
2022-09-06T15:04:14.656Z,1.90
2022-09-06T15:06:46.033Z,1.98
2022-09-06T15:09:17.424Z,2.90
2022-09-06T15:11:52.205Z,5.27
2022-09-06T15:14:23.985Z,1.97
2022-09-06T15:16:57.022Z,2.27
2022-09-06T15:19:28.803Z,1.50
2022-09-06T15:21:58.907Z,1.80
2022-09-06T15:24:28.829Z,1.90
2022-09-06T15:26:59.101Z,1.90
2022-09-06T15:29:28.951Z,2.23
2022-09-06T15:31:58.706Z,1.90
2022-09-06T15:34:28.168Z,2.50
2022-09-06T15:36:57.710Z,1.55
2022-09-06T15:39:28.210Z,2.40
2022-09-06T15:41:57.992Z,1.90
2022-09-06T15:44:28.065Z,2.12
2022-09-06T15:46:59.179Z,1.70
2022-09-06T15:49:31.815Z,1.17
2022-09-06T15:52:05.948Z,1.70
2022-09-06T15:54:53.506Z,1.70
2022-09-06T15:57:23.283Z,1.50
2022-09-06T15:59:53.043Z,1.47
2022-09-06T16:02:24.108Z,1.30
2022-09-06T16:04:54.651Z,1.40
2022-09-06T16:07:25.392Z,1.23
2022-09-06T16:09:55.162Z,1.17
2022-09-06T16:12:24.634Z,1.30
2022-09-06T16:14:54.394Z,1.50
2022-09-06T16:17:25.529Z,1.40
2022-09-06T16:19:55.011Z,1.00
2022-09-06T16:22:24.778Z,1.32
2022-09-06T16:24:54.330Z,1.60
2022-09-06T16:27:24.094Z,1.30
2022-09-06T16:29:54.123Z,1.70
2022-09-06T16:32:23.765Z,1.70
2022-09-06T16:34:53.810Z,1.45
2022-09-06T16:37:24.059Z,1.40
2022-09-06T16:39:54.039Z,1.70
2022-09-06T16:42:23.559Z,1.22
2022-09-06T16:44:53.605Z,1.70
2022-09-06T16:47:23.535Z,1.20
2022-09-06T16:49:53.300Z,1.47
2022-09-06T16:52:23.120Z,1.80
2022-09-06T16:54:52.888Z,1.30
2022-09-06T16:57:24.301Z,1.43
2022-09-06T16:59:54.069Z,1.40
2022-09-06T17:02:24.028Z,1.25
2022-09-06T17:04:53.855Z,1.50
2022-09-06T17:07:24.683Z,1.35
2022-09-06T17:09:54.449Z,1.20
2022-09-06T17:12:24.355Z,1.37
2022-09-06T17:14:54.114Z,1.33
2022-09-06T17:17:23.887Z,1.53
2022-09-06T17:19:53.647Z,1.50
2022-09-06T17:22:23.416Z,1.67
2022-09-06T17:24:53.262Z,1.57
2022-09-06T17:27:23.413Z,1.65
2022-09-06T17:29:53.847Z,1.70
2022-09-06T17:32:23.986Z,1.60
2022-09-06T17:34:53.803Z,1.07
2022-09-06T17:37:23.655Z,2.00
2022-09-06T17:39:53.452Z,1.37
2022-09-06T17:42:23.325Z,1.43
2022-09-06T17:44:53.097Z,2.00
2022-09-06T17:47:22.865Z,1.70
2022-09-06T17:49:52.645Z,1.70
2022-09-06T17:52:22.574Z,1.83
2022-09-06T17:54:52.351Z,1.90
2022-09-06T17:57:22.256Z,1.80
2022-09-06T17:59:52.032Z,1.60
2022-09-06T18:02:21.784Z,1.93
2022-09-06T18:04:51.605Z,1.70
2022-09-06T18:07:21.388Z,1.47
2022-09-06T18:09:51.190Z,2.20
2022-09-06T18:12:22.446Z,2.00
2022-09-06T18:14:52.583Z,1.83
2022-09-06T18:17:23.925Z,2.00
2022-09-06T18:19:53.772Z,2.50
2022-09-06T18:22:23.531Z,2.30
2022-09-06T18:24:58.024Z,2.67
2022-09-06T18:27:25.718Z,2.27
2022-09-06T18:29:55.592Z,2.05
2022-09-06T18:32:25.227Z,2.67
2022-09-06T18:34:55.108Z,2.90
2022-09-06T18:37:25.010Z,2.40
2022-09-06T18:39:54.863Z,2.53
2022-09-06T18:42:24.668Z,2.62
2022-09-06T18:44:56.077Z,2.10
2022-09-06T18:47:25.847Z,2.03
2022-09-06T18:49:55.627Z,2.70
2022-09-06T18:52:25.367Z,2.67
2022-09-06T18:54:55.141Z,2.50
2022-09-06T18:57:24.999Z,3.87
2022-09-06T18:59:55.073Z,2.52
2022-09-06T19:02:26.338Z,2.63
2022-09-06T19:04:57.983Z,3.37
2022-09-06T19:07:29.794Z,3.13
2022-09-06T19:09:59.761Z,3.03
2022-09-06T19:12:29.722Z,3.87
2022-09-06T19:14:59.771Z,3.60
2022-09-06T19:17:29.553Z,3.53
2022-09-06T19:19:59.590Z,4.20
2022-09-06T19:22:29.083Z,3.97
2022-09-06T19:24:59.225Z,3.27
2022-09-06T19:27:29.015Z,2.87
2022-09-06T19:29:59.350Z,2.73
2022-09-06T19:32:29.131Z,3.20
2022-09-06T19:34:58.909Z,3.50
2022-09-06T19:37:29.398Z,2.90
2022-09-06T19:39:59.260Z,3.13
2022-09-06T19:42:29.013Z,3.17
2022-09-06T19:44:58.493Z,2.55
2022-09-06T19:47:28.537Z,2.57
2022-09-06T19:49:58.961Z,3.10
2022-09-06T19:52:29.016Z,3.20
2022-09-06T19:54:58.496Z,2.70
2022-09-06T19:57:29.152Z,3.50
2022-09-06T19:59:59.083Z,3.50
2022-09-06T20:02:29.131Z,3.10
2022-09-06T20:04:58.913Z,3.40
2022-09-06T20:07:28.703Z,3.53
2022-09-06T20:09:58.481Z,3.77
2022-09-06T20:12:29.603Z,2.57
2022-09-06T20:14:59.379Z,3.60
2022-09-06T20:17:33.676Z,3.83
2022-09-06T20:20:00.895Z,3.20
2022-09-06T20:22:31.039Z,3.65
2022-09-06T20:25:00.808Z,3.40
2022-09-06T20:27:31.930Z,3.50
2022-09-06T20:30:01.697Z,4.10
2022-09-06T20:32:31.830Z,3.47
2022-09-06T20:35:01.669Z,3.23
2022-09-06T20:37:31.465Z,3.87
2022-09-06T20:40:01.616Z,3.47
2022-09-06T20:42:31.382Z,3.60
2022-09-06T20:45:01.207Z,3.57
2022-09-06T20:47:30.991Z,3.47
2022-09-06T20:50:00.840Z,3.70
2022-09-06T20:52:31.284Z,3.47
2022-09-06T20:55:01.046Z,3.77
2022-09-06T20:57:30.902Z,3.60
2022-09-06T21:00:00.672Z,3.20
2022-09-06T21:02:30.502Z,3.30
2022-09-06T21:05:00.420Z,3.30
2022-09-06T21:07:30.195Z,3.07
2022-09-06T21:09:59.961Z,2.90
2022-09-06T21:12:29.745Z,2.93
2022-09-06T21:14:59.582Z,3.17
2022-09-06T21:17:29.371Z,2.93
2022-09-06T21:19:59.140Z,3.20
2022-09-06T21:22:28.918Z,3.37
2022-09-06T21:24:58.681Z,3.63
2022-09-06T21:27:28.451Z,3.50
2022-09-06T21:29:58.506Z,3.80
2022-09-06T21:32:28.161Z,3.33
2022-09-06T21:34:58.008Z,3.63
2022-09-06T21:37:27.777Z,3.77
2022-09-06T21:39:57.577Z,3.80
2022-09-06T21:42:31.167Z,3.90
2022-09-06T21:45:00.945Z,5.20
2022-09-06T21:47:31.382Z,5.30
2022-09-06T21:50:01.161Z,4.40
2022-09-06T21:52:32.297Z,5.60
2022-09-06T21:55:02.091Z,5.33
2022-09-06T21:57:31.856Z,6.37
2022-09-06T22:00:01.711Z,6.37
2022-09-06T22:02:33.644Z,6.20
2022-09-06T22:05:05.079Z,7.50
2022-09-06T22:07:37.408Z,7.53
2022-09-06T22:10:08.696Z,8.10
2022-09-06T22:12:38.533Z,7.43
2022-09-06T22:15:10.064Z,7.80
2022-09-06T22:17:39.846Z,7.50
2022-09-06T22:20:11.963Z,7.20
2022-09-06T22:22:43.384Z,6.97
2022-09-06T22:25:13.718Z,7.33
2022-09-06T22:27:43.349Z,7.20
2022-09-06T22:30:13.318Z,7.34
2022-09-06T22:32:43.473Z,7.20
2022-09-06T22:35:13.023Z,7.60
2022-09-06T22:37:42.805Z,7.80
2022-09-06T22:40:12.633Z,7.80
2022-09-06T22:42:43.306Z,8.17
2022-09-06T22:45:13.076Z,8.47
2022-09-06T22:47:43.154Z,9.25
2022-09-06T22:50:14.614Z,10.38
2022-09-06T22:52:44.410Z,12.63
2022-09-06T22:55:14.230Z,11.68
2022-09-06T22:57:43.717Z,12.33
2022-09-06T23:00:15.750Z,14.03
2022-09-06T23:02:45.595Z,14.10
2022-09-06T23:05:15.733Z,14.10
2022-09-06T23:07:45.680Z,14.53
2022-09-06T23:10:15.503Z,13.23
2022-09-06T23:12:45.369Z,12.60
2022-09-06T23:15:14.837Z,12.70
2022-09-06T23:17:45.474Z,13.15
2022-09-06T23:20:15.018Z,13.70
2022-09-06T23:22:45.098Z,12.80
2022-09-06T23:25:14.672Z,11.73
2022-09-06T23:27:44.771Z,12.28
2022-09-06T23:30:14.814Z,11.97
2022-09-06T23:32:44.602Z,11.20
2022-09-06T23:35:14.150Z,10.85
2022-09-06T23:37:44.250Z,11.03
2022-09-06T23:40:14.967Z,10.60
2022-09-06T23:42:45.125Z,9.05
2022-09-06T23:45:15.804Z,8.55
2022-09-06T23:47:45.888Z,8.33
2022-09-06T23:50:15.957Z,6.67
2022-09-06T23:52:45.728Z,6.33
2022-09-06T23:55:15.275Z,4.93
2022-09-06T23:57:45.038Z,3.83
